TAP1483 LPPT-GOBD
Flight info
| Callsign | TAP1483 |
|---|---|
| Flight time | 3h 42m |
| Altitude | 33000 |
| Route | BEVOP DCT BAROK UN873 SAMAR N873 GDV/N0449F340 M660 DKH L660 MAURI DCT PE UB600 LIMAX LIMAX1A |
| Aircraft | A321/M-SDE3FGHIRWY/LB1 |
Departure
| Time | 2026-04-13 11:11 |
|---|---|
| Airport | Lisbon Humberto Delgado Airport (LPPT) |
Arrival
| Time | 2026-04-13 14:54 |
|---|---|
| Airport | Blaise Diagne International Airport (GOBD) |
| Time | Latitude | Longitude | Altitude | Speed | Heading |
|---|---|---|---|---|---|
| 2026-04-13 10:58 | 38.77610 | -9.13192 | 338 ft | 0 kts | 78° |
| 2026-04-13 11:03 | 38.77609 | -9.13198 | 337 ft | 2 kts | 78° |
| 2026-04-13 11:03 | 38.77606 | -9.13218 | 333 ft | 2 kts | 78° |
| 2026-04-13 11:03 | 38.77602 | -9.13243 | 334 ft | 3 kts | 78° |
| 2026-04-13 11:03 | 38.77598 | -9.13270 | 335 ft | 3 kts | 78° |
| 2026-04-13 11:04 | 38.77593 | -9.13298 | 332 ft | 3 kts | 78° |
| 2026-04-13 11:04 | 38.77601 | -9.13321 | 334 ft | 3 kts | 172° |
| 2026-04-13 11:04 | 38.77593 | -9.13320 | 332 ft | 3 kts | 175° |
| 2026-04-13 11:04 | 38.77578 | -9.13317 | 334 ft | 0 kts | 171° |
| 2026-04-13 11:05 | 38.77555 | -9.13313 | 336 ft | 7 kts | 170° |
| 2026-04-13 11:05 | 38.77479 | -9.13293 | 335 ft | 15 kts | 168° |
| 2026-04-13 11:06 | 38.77367 | -9.13266 | 337 ft | 13 kts | 179° |
| 2026-04-13 11:06 | 38.77326 | -9.13320 | 340 ft | 7 kts | 257° |
| 2026-04-13 11:06 | 38.77315 | -9.13382 | 346 ft | 8 kts | 257° |
| 2026-04-13 11:06 | 38.77302 | -9.13458 | 348 ft | 9 kts | 258° |
| 2026-04-13 11:07 | 38.77288 | -9.13549 | 350 ft | 12 kts | 258° |
| 2026-04-13 11:07 | 38.77270 | -9.13661 | 351 ft | 14 kts | 258° |
| 2026-04-13 11:07 | 38.77252 | -9.13770 | 352 ft | 11 kts | 258° |
| 2026-04-13 11:07 | 38.77224 | -9.13845 | 358 ft | 8 kts | 221° |
| 2026-04-13 11:08 | 38.77176 | -9.13875 | 360 ft | 9 kts | 202° |
| 2026-04-13 11:08 | 38.77107 | -9.13911 | 355 ft | 13 kts | 202° |
| 2026-04-13 11:08 | 38.77008 | -9.13964 | 357 ft | 18 kts | 202° |
| 2026-04-13 11:08 | 38.76886 | -9.14031 | 347 ft | 20 kts | 202° |
| 2026-04-13 11:09 | 38.76760 | -9.14098 | 347 ft | 19 kts | 202° |
| 2026-04-13 11:09 | 38.76645 | -9.14159 | 338 ft | 17 kts | 202° |
| 2026-04-13 11:09 | 38.76590 | -9.14230 | 338 ft | 11 kts | 277° |
| 2026-04-13 11:09 | 38.76625 | -9.14330 | 334 ft | 13 kts | 296° |
| 2026-04-13 11:10 | 38.76696 | -9.14361 | 337 ft | 10 kts | 20° |
| 2026-04-13 11:10 | 38.76707 | -9.14355 | 335 ft | 0 kts | 22° |
| 2026-04-13 11:10 | 38.76733 | -9.14341 | 339 ft | 24 kts | 22° |
| 2026-04-13 11:10 | 38.77107 | -9.14142 | 357 ft | 89 kts | 22° |
| 2026-04-13 11:11 | 38.77860 | -9.13739 | 365 ft | 141 kts | 22° |
| 2026-04-13 11:11 | 38.78868 | -9.13200 | 519 ft | 168 kts | 20° |
| 2026-04-13 11:11 | 38.79952 | -9.12621 | 1177 ft | 169 kts | 18° |
| 2026-04-13 11:11 | 38.80994 | -9.11934 | 1801 ft | 169 kts | 30° |
| 2026-04-13 11:12 | 38.81966 | -9.11089 | 2271 ft | 168 kts | 26° |
| 2026-04-13 11:12 | 38.82947 | -9.10270 | 2744 ft | 169 kts | 28° |
| 2026-04-13 11:12 | 38.83600 | -9.09690 | 2965 ft | 176 kts | 30° |
| 2026-04-13 11:12 | 38.84642 | -9.08726 | 3129 ft | 193 kts | 31° |
| 2026-04-13 11:13 | 38.85765 | -9.07666 | 3339 ft | 206 kts | 31° |
| 2026-04-13 11:13 | 38.86964 | -9.06551 | 3544 ft | 222 kts | 31° |
| 2026-04-13 11:13 | 38.88247 | -9.05242 | 3598 ft | 252 kts | 45° |
| 2026-04-13 11:13 | 38.88990 | -9.03103 | 3864 ft | 277 kts | 84° |
| 2026-04-13 11:14 | 38.88637 | -9.00654 | 4461 ft | 287 kts | 115° |
| 2026-04-13 11:14 | 38.87503 | -8.98554 | 5160 ft | 288 kts | 135° |
| 2026-04-13 11:14 | 38.85873 | -8.97075 | 5856 ft | 287 kts | 159° |
| 2026-04-13 11:14 | 38.83941 | -8.96534 | 6543 ft | 284 kts | 183° |
| 2026-04-13 11:15 | 38.82029 | -8.96955 | 7115 ft | 283 kts | 200° |
| 2026-04-13 11:15 | 38.80133 | -8.97690 | 7698 ft | 286 kts | 200° |
| 2026-04-13 11:15 | 38.78217 | -8.98433 | 8259 ft | 289 kts | 200° |
| 2026-04-13 11:15 | 38.76272 | -8.99185 | 8841 ft | 293 kts | 200° |
| 2026-04-13 11:16 | 38.74307 | -8.99942 | 9421 ft | 296 kts | 199° |
| 2026-04-13 11:16 | 38.72319 | -9.00706 | 9981 ft | 300 kts | 199° |
| 2026-04-13 11:16 | 38.70303 | -9.01477 | 10434 ft | 307 kts | 199° |
| 2026-04-13 11:16 | 38.68199 | -9.02287 | 10552 ft | 325 kts | 199° |
| 2026-04-13 11:17 | 38.65979 | -9.03143 | 10689 ft | 341 kts | 199° |
| 2026-04-13 11:17 | 38.63650 | -9.04038 | 10819 ft | 357 kts | 199° |
| 2026-04-13 11:17 | 38.61227 | -9.04963 | 11151 ft | 366 kts | 199° |
| 2026-04-13 11:17 | 38.58772 | -9.05893 | 11619 ft | 369 kts | 199° |
| 2026-04-13 11:18 | 38.56296 | -9.06830 | 12092 ft | 373 kts | 199° |
| 2026-04-13 11:18 | 38.53800 | -9.07778 | 12570 ft | 376 kts | 199° |
| 2026-04-13 11:18 | 38.51307 | -9.08727 | 13047 ft | 379 kts | 199° |
| 2026-04-13 11:18 | 38.48770 | -9.09696 | 13518 ft | 383 kts | 199° |
| 2026-04-13 11:19 | 38.46201 | -9.10677 | 13995 ft | 386 kts | 199° |
| 2026-04-13 11:19 | 38.43611 | -9.11664 | 14423 ft | 389 kts | 199° |
| 2026-04-13 11:19 | 38.41009 | -9.12653 | 14842 ft | 392 kts | 200° |
| 2026-04-13 11:19 | 38.38389 | -9.13648 | 15249 ft | 394 kts | 200° |
| 2026-04-13 11:20 | 38.35744 | -9.14652 | 15649 ft | 397 kts | 200° |
| 2026-04-13 11:20 | 38.33087 | -9.15659 | 16035 ft | 400 kts | 200° |
| 2026-04-13 11:20 | 38.30452 | -9.16659 | 16429 ft | 402 kts | 200° |
| 2026-04-13 11:20 | 38.27758 | -9.17681 | 16812 ft | 404 kts | 200° |
| 2026-04-13 11:21 | 38.25052 | -9.18700 | 17189 ft | 407 kts | 200° |
| 2026-04-13 11:21 | 38.22331 | -9.19726 | 17578 ft | 409 kts | 200° |
| 2026-04-13 11:21 | 38.19588 | -9.20757 | 17945 ft | 412 kts | 200° |
| 2026-04-13 11:21 | 38.16837 | -9.21793 | 18288 ft | 414 kts | 200° |
| 2026-04-13 11:22 | 38.14062 | -9.22838 | 18632 ft | 416 kts | 201° |
| 2026-04-13 11:22 | 38.11279 | -9.23887 | 18916 ft | 419 kts | 201° |
| 2026-04-13 11:22 | 38.08477 | -9.24943 | 19190 ft | 421 kts | 201° |
| 2026-04-13 11:22 | 38.05657 | -9.26007 | 19454 ft | 423 kts | 201° |
| 2026-04-13 11:23 | 38.02824 | -9.27074 | 19710 ft | 426 kts | 201° |
| 2026-04-13 11:23 | 37.99975 | -9.28145 | 19967 ft | 428 kts | 201° |
| 2026-04-13 11:23 | 37.97147 | -9.29207 | 20211 ft | 430 kts | 201° |
| 2026-04-13 11:23 | 37.94268 | -9.30286 | 20467 ft | 432 kts | 201° |
| 2026-04-13 11:24 | 37.91373 | -9.31369 | 20719 ft | 435 kts | 201° |
| 2026-04-13 11:24 | 37.88456 | -9.32462 | 20966 ft | 437 kts | 201° |
| 2026-04-13 11:24 | 37.85528 | -9.33559 | 21222 ft | 439 kts | 201° |
| 2026-04-13 11:24 | 37.82588 | -9.34658 | 21476 ft | 441 kts | 201° |
| 2026-04-13 11:25 | 37.79638 | -9.35759 | 21721 ft | 444 kts | 201° |
| 2026-04-13 11:25 | 37.76654 | -9.36870 | 21971 ft | 446 kts | 201° |
| 2026-04-13 11:25 | 37.73665 | -9.37981 | 22225 ft | 449 kts | 201° |
| 2026-04-13 11:25 | 37.70662 | -9.39096 | 22492 ft | 451 kts | 201° |
| 2026-04-13 11:26 | 37.67645 | -9.40218 | 22737 ft | 453 kts | 201° |
| 2026-04-13 11:26 | 37.64646 | -9.41333 | 23002 ft | 456 kts | 201° |
| 2026-04-13 11:26 | 37.61595 | -9.42469 | 23254 ft | 458 kts | 201° |
| 2026-04-13 11:26 | 37.58528 | -9.43610 | 23508 ft | 461 kts | 201° |
| 2026-04-13 11:27 | 37.55445 | -9.44756 | 23742 ft | 463 kts | 201° |
| 2026-04-13 11:27 | 37.52337 | -9.45908 | 23954 ft | 466 kts | 201° |
| 2026-04-13 11:27 | 37.49209 | -9.47063 | 24129 ft | 469 kts | 201° |
| 2026-04-13 11:27 | 37.46069 | -9.48222 | 24327 ft | 471 kts | 201° |
| 2026-04-13 11:28 | 37.42915 | -9.49386 | 24534 ft | 473 kts | 201° |
| 2026-04-13 11:28 | 37.39754 | -9.50556 | 24746 ft | 475 kts | 201° |
| 2026-04-13 11:28 | 37.36613 | -9.51716 | 24963 ft | 476 kts | 201° |
| 2026-04-13 11:28 | 37.33427 | -9.52889 | 25175 ft | 478 kts | 201° |
| 2026-04-13 11:29 | 37.30224 | -9.54067 | 25383 ft | 480 kts | 201° |
| 2026-04-13 11:29 | 37.27013 | -9.55251 | 25595 ft | 481 kts | 201° |
| 2026-04-13 11:29 | 37.23792 | -9.56437 | 25801 ft | 483 kts | 201° |
| 2026-04-13 11:29 | 37.20561 | -9.57624 | 26009 ft | 485 kts | 201° |
| 2026-04-13 11:30 | 37.17316 | -9.58813 | 26211 ft | 486 kts | 201° |
| 2026-04-13 11:30 | 37.14062 | -9.60003 | 26429 ft | 488 kts | 201° |
| 2026-04-13 11:30 | 37.10794 | -9.61196 | 26652 ft | 490 kts | 201° |
| 2026-04-13 11:30 | 37.07511 | -9.62395 | 26869 ft | 491 kts | 201° |
| 2026-04-13 11:31 | 37.04223 | -9.63596 | 27125 ft | 493 kts | 201° |
| 2026-04-13 11:31 | 37.00927 | -9.64802 | 27360 ft | 494 kts | 201° |
| 2026-04-13 11:31 | 36.97622 | -9.66012 | 27583 ft | 496 kts | 201° |
| 2026-04-13 11:31 | 36.94305 | -9.67228 | 27803 ft | 498 kts | 201° |
| 2026-04-13 11:32 | 36.90972 | -9.68443 | 28028 ft | 499 kts | 200° |
| 2026-04-13 11:32 | 36.87666 | -9.69643 | 28243 ft | 501 kts | 200° |
| 2026-04-13 11:32 | 36.84312 | -9.70858 | 28454 ft | 503 kts | 200° |
| 2026-04-13 11:32 | 36.80941 | -9.72080 | 28660 ft | 504 kts | 200° |
| 2026-04-13 11:33 | 36.77566 | -9.73301 | 28869 ft | 505 kts | 200° |
| 2026-04-13 11:33 | 36.74181 | -9.74527 | 29060 ft | 507 kts | 200° |
| 2026-04-13 11:33 | 36.67386 | -9.76990 | 29411 ft | 509 kts | 200° |
| 2026-04-13 11:34 | 36.63976 | -9.78229 | 29589 ft | 510 kts | 200° |
| 2026-04-13 11:34 | 36.60609 | -9.79445 | 29831 ft | 510 kts | 200° |
| 2026-04-13 11:34 | 36.57202 | -9.80671 | 30048 ft | 509 kts | 200° |
| 2026-04-13 11:34 | 36.53803 | -9.81894 | 30297 ft | 509 kts | 200° |
| 2026-04-13 11:35 | 36.50404 | -9.83119 | 30493 ft | 508 kts | 200° |
| 2026-04-13 11:35 | 36.47001 | -9.84343 | 30637 ft | 508 kts | 200° |
| 2026-04-13 11:35 | 36.43605 | -9.85566 | 30812 ft | 508 kts | 200° |
| 2026-04-13 11:35 | 36.40208 | -9.86791 | 30990 ft | 509 kts | 200° |
| 2026-04-13 11:36 | 36.36807 | -9.88014 | 31155 ft | 509 kts | 200° |
| 2026-04-13 11:36 | 36.33404 | -9.89235 | 31314 ft | 509 kts | 200° |
| 2026-04-13 11:36 | 36.29994 | -9.90457 | 31493 ft | 509 kts | 200° |
| 2026-04-13 11:36 | 36.26587 | -9.91674 | 31664 ft | 509 kts | 200° |
| 2026-04-13 11:37 | 36.23176 | -9.92893 | 31826 ft | 510 kts | 200° |
| 2026-04-13 11:37 | 36.19765 | -9.94114 | 31990 ft | 510 kts | 200° |
| 2026-04-13 11:37 | 36.16353 | -9.95333 | 32151 ft | 510 kts | 200° |
| 2026-04-13 11:37 | 36.12941 | -9.96549 | 32316 ft | 511 kts | 200° |
| 2026-04-13 11:38 | 36.09525 | -9.97764 | 32474 ft | 511 kts | 200° |
| 2026-04-13 11:38 | 36.06108 | -9.98977 | 32630 ft | 511 kts | 200° |
| 2026-04-13 11:38 | 36.02729 | -10.00177 | 32807 ft | 511 kts | 200° |
| 2026-04-13 11:38 | 35.99340 | -10.01474 | 32956 ft | 508 kts | 206° |
| 2026-04-13 11:39 | 35.96142 | -10.03260 | 33108 ft | 501 kts | 215° |
| 2026-04-13 11:39 | 35.93219 | -10.05533 | 33267 ft | 493 kts | 224° |
| 2026-04-13 11:39 | 35.90490 | -10.08073 | 33310 ft | 490 kts | 224° |
| 2026-04-13 11:40 | 35.85054 | -10.13125 | 33310 ft | 489 kts | 224° |
| 2026-04-13 11:40 | 35.79615 | -10.18159 | 33307 ft | 489 kts | 224° |
| 2026-04-13 11:41 | 35.74176 | -10.23195 | 33319 ft | 488 kts | 224° |
| 2026-04-13 11:41 | 35.68744 | -10.28226 | 33309 ft | 488 kts | 224° |
| 2026-04-13 11:42 | 35.63347 | -10.33205 | 33304 ft | 488 kts | 224° |
| 2026-04-13 11:42 | 35.57913 | -10.38208 | 33306 ft | 488 kts | 224° |
| 2026-04-13 11:43 | 35.52475 | -10.43198 | 33305 ft | 488 kts | 224° |
| 2026-04-13 11:43 | 35.47028 | -10.48189 | 33305 ft | 488 kts | 224° |
| 2026-04-13 11:44 | 35.41624 | -10.53145 | 33318 ft | 488 kts | 224° |
| 2026-04-13 11:44 | 35.36184 | -10.58120 | 33281 ft | 488 kts | 223° |
| 2026-04-13 11:45 | 35.30746 | -10.63088 | 33289 ft | 487 kts | 223° |
| 2026-04-13 11:45 | 35.25308 | -10.68049 | 33290 ft | 487 kts | 223° |
| 2026-04-13 11:46 | 35.19857 | -10.72996 | 33300 ft | 487 kts | 223° |
| 2026-04-13 11:46 | 35.14408 | -10.77937 | 33307 ft | 487 kts | 223° |
| 2026-04-13 11:47 | 35.08998 | -10.82838 | 33314 ft | 487 kts | 223° |
| 2026-04-13 11:47 | 35.03552 | -10.87772 | 33318 ft | 487 kts | 223° |
| 2026-04-13 11:48 | 34.98101 | -10.92697 | 33309 ft | 487 kts | 223° |
| 2026-04-13 11:48 | 34.92647 | -10.97607 | 33293 ft | 487 kts | 222° |
| 2026-04-13 11:49 | 34.87211 | -11.02506 | 33311 ft | 486 kts | 223° |
| 2026-04-13 11:49 | 34.81766 | -11.07409 | 33317 ft | 486 kts | 222° |
| 2026-04-13 11:50 | 34.76329 | -11.12295 | 33321 ft | 486 kts | 222° |
| 2026-04-13 11:50 | 34.70887 | -11.17174 | 33309 ft | 486 kts | 222° |
| 2026-04-13 11:51 | 34.65473 | -11.22005 | 33314 ft | 486 kts | 222° |
| 2026-04-13 11:51 | 34.60027 | -11.26864 | 33324 ft | 486 kts | 222° |
| 2026-04-13 11:52 | 34.54589 | -11.31741 | 33314 ft | 486 kts | 222° |
| 2026-04-13 11:52 | 34.49159 | -11.36625 | 33311 ft | 485 kts | 222° |
| 2026-04-13 11:53 | 34.43729 | -11.41488 | 33310 ft | 485 kts | 222° |
| 2026-04-13 11:53 | 34.38298 | -11.46335 | 33314 ft | 485 kts | 222° |
| 2026-04-13 11:54 | 34.32854 | -11.51188 | 33320 ft | 485 kts | 222° |
| 2026-04-13 11:54 | 34.27453 | -11.55996 | 33321 ft | 485 kts | 222° |
| 2026-04-13 11:55 | 34.22008 | -11.60829 | 33323 ft | 485 kts | 222° |
| 2026-04-13 11:55 | 34.16566 | -11.65668 | 33309 ft | 485 kts | 221° |
| 2026-04-13 11:56 | 34.11124 | -11.70491 | 33318 ft | 485 kts | 221° |
| 2026-04-13 11:56 | 34.05681 | -11.75302 | 33328 ft | 485 kts | 221° |
| 2026-04-13 11:57 | 34.00236 | -11.80109 | 33331 ft | 485 kts | 221° |
| 2026-04-13 11:57 | 33.94786 | -11.84910 | 33332 ft | 485 kts | 221° |
| 2026-04-13 11:58 | 33.89339 | -11.89701 | 33326 ft | 485 kts | 221° |
| 2026-04-13 11:58 | 33.83892 | -11.94491 | 33328 ft | 485 kts | 221° |
| 2026-04-13 11:59 | 33.78474 | -11.99243 | 33330 ft | 485 kts | 221° |
| 2026-04-13 11:59 | 33.73017 | -12.04029 | 33332 ft | 485 kts | 221° |
| 2026-04-13 12:00 | 33.68449 | -12.08029 | 33318 ft | 485 kts | 221° |
| 2026-04-13 12:00 | 33.62986 | -12.12783 | 33335 ft | 485 kts | 221° |
| 2026-04-13 12:01 | 33.57532 | -12.17538 | 33328 ft | 484 kts | 221° |
| 2026-04-13 12:01 | 33.52108 | -12.22254 | 33336 ft | 484 kts | 221° |
| 2026-04-13 12:02 | 33.46657 | -12.26993 | 33337 ft | 484 kts | 221° |
| 2026-04-13 12:02 | 33.41199 | -12.31726 | 33338 ft | 484 kts | 221° |
| 2026-04-13 12:03 | 33.35751 | -12.36458 | 33340 ft | 484 kts | 221° |
| 2026-04-13 12:03 | 33.30295 | -12.41183 | 33305 ft | 484 kts | 220° |
| 2026-04-13 12:04 | 33.24832 | -12.45894 | 33319 ft | 484 kts | 220° |
| 2026-04-13 12:04 | 33.19375 | -12.50602 | 33327 ft | 484 kts | 220° |
| 2026-04-13 12:05 | 33.13919 | -12.55303 | 33329 ft | 484 kts | 220° |
| 2026-04-13 12:05 | 33.08459 | -12.59989 | 33331 ft | 483 kts | 220° |
| 2026-04-13 12:06 | 33.03001 | -12.64671 | 33328 ft | 483 kts | 220° |
| 2026-04-13 12:06 | 32.97541 | -12.69347 | 33322 ft | 484 kts | 220° |
| 2026-04-13 12:07 | 32.92071 | -12.74019 | 33324 ft | 484 kts | 220° |
| 2026-04-13 12:07 | 32.86601 | -12.78695 | 33316 ft | 484 kts | 220° |
| 2026-04-13 12:08 | 32.81132 | -12.83354 | 33328 ft | 483 kts | 219° |
| 2026-04-13 12:08 | 32.75656 | -12.87989 | 33333 ft | 483 kts | 219° |
| 2026-04-13 12:09 | 32.70220 | -12.92589 | 33336 ft | 483 kts | 219° |
| 2026-04-13 12:09 | 32.64753 | -12.97214 | 33333 ft | 482 kts | 219° |
| 2026-04-13 12:10 | 32.59278 | -13.01829 | 33325 ft | 482 kts | 219° |
| 2026-04-13 12:10 | 32.53802 | -13.06434 | 33325 ft | 482 kts | 219° |
| 2026-04-13 12:11 | 32.48337 | -13.11044 | 33331 ft | 482 kts | 219° |
| 2026-04-13 12:11 | 32.42868 | -13.15635 | 33296 ft | 482 kts | 219° |
| 2026-04-13 12:12 | 32.37397 | -13.20214 | 33309 ft | 482 kts | 219° |
| 2026-04-13 12:12 | 32.31925 | -13.24786 | 33314 ft | 481 kts | 219° |
| 2026-04-13 12:13 | 32.26462 | -13.29364 | 33318 ft | 481 kts | 219° |
| 2026-04-13 12:13 | 32.20995 | -13.33942 | 33322 ft | 481 kts | 219° |
| 2026-04-13 12:14 | 32.15515 | -13.38505 | 33318 ft | 482 kts | 219° |
| 2026-04-13 12:14 | 32.10038 | -13.43053 | 33317 ft | 482 kts | 219° |
| 2026-04-13 12:15 | 32.04590 | -13.47577 | 33318 ft | 482 kts | 219° |
| 2026-04-13 12:15 | 31.99110 | -13.52122 | 33304 ft | 481 kts | 219° |
| 2026-04-13 12:16 | 31.93638 | -13.56652 | 33318 ft | 480 kts | 219° |
| 2026-04-13 12:16 | 31.88174 | -13.61169 | 33304 ft | 480 kts | 218° |
| 2026-04-13 12:17 | 31.82707 | -13.65686 | 33309 ft | 480 kts | 218° |
| 2026-04-13 12:17 | 31.77245 | -13.70202 | 33312 ft | 480 kts | 218° |
| 2026-04-13 12:18 | 31.71780 | -13.74706 | 33304 ft | 480 kts | 218° |
| 2026-04-13 12:18 | 31.66314 | -13.79199 | 33310 ft | 480 kts | 218° |
| 2026-04-13 12:19 | 31.60847 | -13.83689 | 33307 ft | 480 kts | 218° |
| 2026-04-13 12:19 | 31.55380 | -13.88168 | 33293 ft | 479 kts | 218° |
| 2026-04-13 12:20 | 31.49914 | -13.92653 | 33296 ft | 479 kts | 218° |
| 2026-04-13 12:20 | 31.44442 | -13.97122 | 33306 ft | 479 kts | 218° |
| 2026-04-13 12:21 | 31.39006 | -14.01553 | 33304 ft | 479 kts | 218° |
| 2026-04-13 12:21 | 31.33541 | -14.06001 | 33304 ft | 479 kts | 218° |
| 2026-04-13 12:22 | 31.28082 | -14.10463 | 33296 ft | 478 kts | 218° |
| 2026-04-13 12:22 | 31.22632 | -14.14931 | 33297 ft | 478 kts | 218° |
| 2026-04-13 12:23 | 31.17179 | -14.19394 | 33303 ft | 478 kts | 218° |
| 2026-04-13 12:23 | 31.11723 | -14.23848 | 33297 ft | 478 kts | 218° |
| 2026-04-13 12:24 | 31.06282 | -14.28302 | 33311 ft | 477 kts | 218° |
| 2026-04-13 12:24 | 31.00837 | -14.32733 | 33311 ft | 477 kts | 218° |
| 2026-04-13 12:25 | 30.95392 | -14.37159 | 33308 ft | 477 kts | 218° |
| 2026-04-13 12:25 | 30.89805 | -14.41319 | 33306 ft | 479 kts | 208° |
| 2026-04-13 12:26 | 30.83513 | -14.43946 | 33306 ft | 481 kts | 199° |
| 2026-04-13 12:26 | 30.77117 | -14.46291 | 33302 ft | 481 kts | 199° |
| 2026-04-13 12:27 | 30.70734 | -14.48645 | 33301 ft | 481 kts | 199° |
| 2026-04-13 12:27 | 30.61205 | -14.52159 | 33294 ft | 481 kts | 199° |
| 2026-04-13 12:28 | 30.54822 | -14.54507 | 33291 ft | 481 kts | 199° |
| 2026-04-13 12:28 | 30.48438 | -14.56848 | 33293 ft | 481 kts | 199° |
| 2026-04-13 12:29 | 30.42056 | -14.59184 | 33288 ft | 480 kts | 199° |
| 2026-04-13 12:29 | 30.35676 | -14.61521 | 33290 ft | 479 kts | 199° |
| 2026-04-13 12:30 | 30.29356 | -14.63831 | 33299 ft | 479 kts | 199° |
| 2026-04-13 12:30 | 30.22994 | -14.66151 | 33297 ft | 478 kts | 199° |
| 2026-04-13 12:31 | 30.16638 | -14.68467 | 33297 ft | 478 kts | 199° |
| 2026-04-13 12:31 | 30.10289 | -14.70770 | 33291 ft | 478 kts | 199° |
| 2026-04-13 12:32 | 30.03941 | -14.73084 | 33289 ft | 478 kts | 199° |
| 2026-04-13 12:32 | 29.97604 | -14.75389 | 33289 ft | 478 kts | 199° |
| 2026-04-13 12:33 | 29.91301 | -14.77670 | 33290 ft | 478 kts | 199° |
| 2026-04-13 12:33 | 29.84945 | -14.79962 | 33288 ft | 477 kts | 199° |
| 2026-04-13 12:34 | 29.78603 | -14.82248 | 33289 ft | 477 kts | 199° |
| 2026-04-13 12:34 | 29.72291 | -14.84522 | 33288 ft | 477 kts | 199° |
| 2026-04-13 12:35 | 29.65952 | -14.86811 | 33284 ft | 477 kts | 199° |
| 2026-04-13 12:35 | 29.59605 | -14.89105 | 33282 ft | 477 kts | 199° |
| 2026-04-13 12:36 | 29.53254 | -14.91392 | 33274 ft | 477 kts | 199° |
| 2026-04-13 12:36 | 29.46958 | -14.93649 | 33271 ft | 477 kts | 199° |
| 2026-04-13 12:37 | 29.40619 | -14.95909 | 33269 ft | 476 kts | 199° |
| 2026-04-13 12:37 | 29.34299 | -14.98168 | 33274 ft | 475 kts | 199° |
| 2026-04-13 12:38 | 29.27983 | -15.00432 | 33269 ft | 475 kts | 199° |
| 2026-04-13 12:38 | 29.21664 | -15.02690 | 33264 ft | 475 kts | 199° |
| 2026-04-13 12:39 | 29.15355 | -15.04943 | 33262 ft | 475 kts | 199° |
| 2026-04-13 12:39 | 29.09085 | -15.07181 | 33264 ft | 475 kts | 199° |
| 2026-04-13 12:40 | 29.02768 | -15.09427 | 33266 ft | 475 kts | 199° |
| 2026-04-13 12:40 | 28.96453 | -15.11666 | 33266 ft | 475 kts | 199° |
| 2026-04-13 12:41 | 28.90133 | -15.13911 | 33259 ft | 476 kts | 199° |
| 2026-04-13 12:41 | 28.83806 | -15.16161 | 33263 ft | 476 kts | 199° |
| 2026-04-13 12:42 | 28.77479 | -15.18393 | 33265 ft | 476 kts | 199° |
| 2026-04-13 12:42 | 28.71151 | -15.20621 | 33265 ft | 476 kts | 199° |
| 2026-04-13 12:43 | 28.64828 | -15.22855 | 33263 ft | 476 kts | 199° |
| 2026-04-13 12:43 | 28.58500 | -15.25087 | 33264 ft | 475 kts | 199° |
| 2026-04-13 12:44 | 28.52212 | -15.27299 | 33266 ft | 475 kts | 199° |
| 2026-04-13 12:44 | 28.45894 | -15.29525 | 33262 ft | 475 kts | 199° |
| 2026-04-13 12:45 | 28.39573 | -15.31752 | 33262 ft | 475 kts | 199° |
| 2026-04-13 12:45 | 28.34315 | -15.33596 | 33255 ft | 475 kts | 199° |
| 2026-04-13 12:46 | 28.27986 | -15.35813 | 33262 ft | 475 kts | 199° |
| 2026-04-13 12:46 | 28.21658 | -15.38031 | 33271 ft | 475 kts | 199° |
| 2026-04-13 12:47 | 28.15368 | -15.40231 | 33272 ft | 475 kts | 199° |
| 2026-04-13 12:47 | 28.09043 | -15.42421 | 33251 ft | 475 kts | 196° |
| 2026-04-13 12:48 | 28.02488 | -15.43542 | 33235 ft | 477 kts | 187° |
| 2026-04-13 12:48 | 27.95889 | -15.44314 | 33237 ft | 476 kts | 187° |
| 2026-04-13 12:49 | 27.89293 | -15.45085 | 33237 ft | 476 kts | 187° |
| 2026-04-13 12:49 | 27.82732 | -15.45867 | 33239 ft | 476 kts | 187° |
| 2026-04-13 12:50 | 27.76134 | -15.46658 | 33240 ft | 477 kts | 187° |
| 2026-04-13 12:50 | 27.69518 | -15.47444 | 33232 ft | 478 kts | 187° |
| 2026-04-13 12:51 | 27.62885 | -15.48232 | 33224 ft | 479 kts | 187° |
| 2026-04-13 12:51 | 27.56260 | -15.49020 | 33225 ft | 479 kts | 187° |
| 2026-04-13 12:52 | 27.49673 | -15.49799 | 33224 ft | 479 kts | 187° |
| 2026-04-13 12:52 | 27.43039 | -15.50574 | 33224 ft | 479 kts | 187° |
| 2026-04-13 12:53 | 27.36415 | -15.51357 | 33228 ft | 479 kts | 187° |
| 2026-04-13 12:53 | 27.29785 | -15.52145 | 33227 ft | 478 kts | 187° |
| 2026-04-13 12:54 | 27.23153 | -15.52924 | 33230 ft | 479 kts | 186° |
| 2026-04-13 12:54 | 27.16521 | -15.53695 | 33226 ft | 478 kts | 186° |
| 2026-04-13 12:55 | 27.09900 | -15.54469 | 33230 ft | 478 kts | 186° |
| 2026-04-13 12:55 | 27.03290 | -15.55250 | 33236 ft | 478 kts | 187° |
| 2026-04-13 12:56 | 26.96681 | -15.56030 | 33232 ft | 477 kts | 187° |
| 2026-04-13 12:56 | 26.90116 | -15.56803 | 33229 ft | 477 kts | 186° |
| 2026-04-13 12:57 | 26.83515 | -15.57573 | 33227 ft | 477 kts | 186° |
| 2026-04-13 12:57 | 26.76907 | -15.58340 | 33222 ft | 477 kts | 186° |
| 2026-04-13 12:58 | 26.70309 | -15.59106 | 33213 ft | 476 kts | 186° |
| 2026-04-13 12:58 | 26.63710 | -15.59871 | 33209 ft | 476 kts | 186° |
| 2026-04-13 12:59 | 26.57157 | -15.60636 | 33205 ft | 476 kts | 187° |
| 2026-04-13 12:59 | 26.50560 | -15.61410 | 33210 ft | 476 kts | 187° |
| 2026-04-13 13:00 | 26.43971 | -15.62178 | 33203 ft | 476 kts | 187° |
| 2026-04-13 13:00 | 26.37384 | -15.62940 | 33203 ft | 475 kts | 186° |
| 2026-04-13 13:01 | 26.30839 | -15.63694 | 33198 ft | 475 kts | 186° |
| 2026-04-13 13:01 | 26.24273 | -15.64455 | 33184 ft | 474 kts | 187° |
| 2026-04-13 13:02 | 26.17703 | -15.65226 | 33195 ft | 474 kts | 187° |
| 2026-04-13 13:02 | 26.11133 | -15.65981 | 33191 ft | 474 kts | 186° |
| 2026-04-13 13:03 | 26.04572 | -15.66734 | 33198 ft | 474 kts | 187° |
| 2026-04-13 13:03 | 25.98013 | -15.67483 | 33199 ft | 473 kts | 186° |
| 2026-04-13 13:04 | 25.91463 | -15.68232 | 33197 ft | 473 kts | 187° |
| 2026-04-13 13:04 | 25.84913 | -15.68989 | 33196 ft | 473 kts | 187° |
| 2026-04-13 13:05 | 25.78403 | -15.69740 | 33198 ft | 472 kts | 186° |
| 2026-04-13 13:05 | 25.71859 | -15.70488 | 33179 ft | 472 kts | 186° |
| 2026-04-13 13:06 | 25.65316 | -15.71237 | 33195 ft | 471 kts | 186° |
| 2026-04-13 13:06 | 25.58774 | -15.71980 | 33191 ft | 471 kts | 186° |
| 2026-04-13 13:07 | 25.52297 | -15.72720 | 33176 ft | 471 kts | 186° |
| 2026-04-13 13:07 | 25.45778 | -15.73463 | 33183 ft | 470 kts | 186° |
| 2026-04-13 13:08 | 25.39267 | -15.74210 | 33161 ft | 470 kts | 187° |
| 2026-04-13 13:08 | 25.32769 | -15.74953 | 33182 ft | 469 kts | 187° |
| 2026-04-13 13:09 | 25.26283 | -15.75688 | 33184 ft | 468 kts | 187° |
| 2026-04-13 13:09 | 25.19840 | -15.76414 | 33170 ft | 468 kts | 187° |
| 2026-04-13 13:10 | 25.13362 | -15.77147 | 33172 ft | 467 kts | 187° |
| 2026-04-13 13:10 | 25.06882 | -15.77888 | 33179 ft | 467 kts | 188° |
| 2026-04-13 13:11 | 25.00432 | -15.78621 | 33189 ft | 465 kts | 188° |
| 2026-04-13 13:11 | 24.93997 | -15.79328 | 33193 ft | 464 kts | 188° |
| 2026-04-13 13:12 | 24.87563 | -15.80009 | 33185 ft | 464 kts | 187° |
| 2026-04-13 13:12 | 24.81145 | -15.80687 | 33181 ft | 463 kts | 188° |
| 2026-04-13 13:13 | 24.74760 | -15.81367 | 33178 ft | 462 kts | 188° |
| 2026-04-13 13:13 | 24.68374 | -15.82048 | 33187 ft | 460 kts | 188° |
| 2026-04-13 13:14 | 24.62004 | -15.82725 | 33183 ft | 459 kts | 188° |
| 2026-04-13 13:14 | 24.55656 | -15.83394 | 33180 ft | 458 kts | 188° |
| 2026-04-13 13:15 | 24.49308 | -15.84073 | 33171 ft | 457 kts | 188° |
| 2026-04-13 13:15 | 24.43017 | -15.84751 | 33170 ft | 456 kts | 189° |
| 2026-04-13 13:16 | 24.36712 | -15.85416 | 33180 ft | 454 kts | 189° |
| 2026-04-13 13:16 | 24.30430 | -15.86078 | 33175 ft | 453 kts | 189° |
| 2026-04-13 13:17 | 24.24159 | -15.86743 | 33172 ft | 452 kts | 189° |
| 2026-04-13 13:17 | 24.17883 | -15.87411 | 33166 ft | 452 kts | 189° |
| 2026-04-13 13:18 | 24.11620 | -15.88072 | 33158 ft | 451 kts | 189° |
| 2026-04-13 13:18 | 24.05376 | -15.88726 | 33162 ft | 450 kts | 189° |
| 2026-04-13 13:19 | 23.99134 | -15.89382 | 33161 ft | 450 kts | 189° |
| 2026-04-13 13:19 | 23.92940 | -15.90041 | 33159 ft | 450 kts | 189° |
| 2026-04-13 13:20 | 23.86717 | -15.90697 | 33142 ft | 449 kts | 189° |
| 2026-04-13 13:20 | 23.80488 | -15.91349 | 33130 ft | 449 kts | 189° |
| 2026-04-13 13:21 | 23.74302 | -15.92214 | 33130 ft | 444 kts | 198° |
| 2026-04-13 13:21 | 23.68492 | -15.94386 | 33152 ft | 440 kts | 204° |
| 2026-04-13 13:22 | 23.62735 | -15.96683 | 33147 ft | 441 kts | 204° |
| 2026-04-13 13:22 | 23.56998 | -15.98963 | 33146 ft | 441 kts | 204° |
| 2026-04-13 13:23 | 23.51239 | -16.01263 | 33139 ft | 440 kts | 204° |
| 2026-04-13 13:23 | 23.45484 | -16.03557 | 33144 ft | 439 kts | 204° |
| 2026-04-13 13:24 | 23.39777 | -16.05823 | 33148 ft | 438 kts | 204° |
| 2026-04-13 13:24 | 23.34046 | -16.08104 | 33157 ft | 438 kts | 204° |
| 2026-04-13 13:25 | 23.28327 | -16.10384 | 33148 ft | 437 kts | 204° |
| 2026-04-13 13:26 | 23.19748 | -16.13778 | 33137 ft | 437 kts | 205° |
| 2026-04-13 13:26 | 23.14080 | -16.16028 | 33148 ft | 435 kts | 205° |
| 2026-04-13 13:27 | 23.08388 | -16.18286 | 33139 ft | 435 kts | 205° |
| 2026-04-13 13:27 | 23.02694 | -16.20535 | 33134 ft | 434 kts | 205° |
| 2026-04-13 13:28 | 22.97023 | -16.22778 | 33131 ft | 434 kts | 205° |
| 2026-04-13 13:28 | 22.91347 | -16.25021 | 33130 ft | 434 kts | 205° |
| 2026-04-13 13:29 | 22.85713 | -16.27243 | 33140 ft | 432 kts | 206° |
| 2026-04-13 13:29 | 22.80066 | -16.29472 | 33149 ft | 430 kts | 206° |
| 2026-04-13 13:30 | 22.74444 | -16.31683 | 33142 ft | 429 kts | 206° |
| 2026-04-13 13:30 | 22.68839 | -16.33893 | 33140 ft | 428 kts | 206° |
| 2026-04-13 13:31 | 22.63242 | -16.36100 | 33129 ft | 428 kts | 206° |
| 2026-04-13 13:31 | 22.57644 | -16.38296 | 33120 ft | 428 kts | 206° |
| 2026-04-13 13:32 | 22.52055 | -16.40482 | 33129 ft | 426 kts | 207° |
| 2026-04-13 13:32 | 22.46530 | -16.42653 | 33132 ft | 424 kts | 207° |
| 2026-04-13 13:33 | 22.40987 | -16.44829 | 33132 ft | 423 kts | 207° |
| 2026-04-13 13:33 | 22.35455 | -16.46995 | 33125 ft | 422 kts | 207° |
| 2026-04-13 13:34 | 22.29931 | -16.49155 | 33125 ft | 422 kts | 207° |
| 2026-04-13 13:34 | 22.25341 | -16.50952 | 33125 ft | 422 kts | 207° |
| 2026-04-13 13:35 | 22.19822 | -16.53106 | 33113 ft | 421 kts | 208° |
| 2026-04-13 13:35 | 22.14317 | -16.55253 | 33122 ft | 420 kts | 208° |
| 2026-04-13 13:36 | 22.08821 | -16.57394 | 33115 ft | 419 kts | 208° |
| 2026-04-13 13:36 | 22.03365 | -16.59523 | 33114 ft | 418 kts | 208° |
| 2026-04-13 13:37 | 21.97891 | -16.61653 | 33107 ft | 418 kts | 208° |
| 2026-04-13 13:37 | 21.92421 | -16.63784 | 33108 ft | 418 kts | 208° |
| 2026-04-13 13:38 | 21.86962 | -16.65904 | 33096 ft | 416 kts | 208° |
| 2026-04-13 13:38 | 21.81523 | -16.68028 | 33104 ft | 415 kts | 209° |
| 2026-04-13 13:39 | 21.76124 | -16.70206 | 33106 ft | 414 kts | 209° |
| 2026-04-13 13:39 | 21.70738 | -16.72390 | 33104 ft | 413 kts | 209° |
| 2026-04-13 13:40 | 21.65349 | -16.74565 | 33099 ft | 413 kts | 209° |
| 2026-04-13 13:40 | 21.59952 | -16.76728 | 33098 ft | 414 kts | 209° |
| 2026-04-13 13:41 | 21.54599 | -16.78874 | 33105 ft | 412 kts | 210° |
| 2026-04-13 13:41 | 21.49225 | -16.81028 | 33120 ft | 411 kts | 210° |
| 2026-04-13 13:42 | 21.43875 | -16.83176 | 33123 ft | 410 kts | 210° |
| 2026-04-13 13:42 | 21.38526 | -16.85317 | 33119 ft | 410 kts | 210° |
| 2026-04-13 13:43 | 21.33216 | -16.87437 | 33118 ft | 409 kts | 210° |
| 2026-04-13 13:43 | 21.27858 | -16.89533 | 33118 ft | 410 kts | 209° |
| 2026-04-13 13:44 | 21.22488 | -16.91584 | 33118 ft | 408 kts | 210° |
| 2026-04-13 13:44 | 21.17146 | -16.93624 | 33135 ft | 406 kts | 210° |
| 2026-04-13 13:45 | 21.11827 | -16.95664 | 33133 ft | 405 kts | 210° |
| 2026-04-13 13:45 | 21.06530 | -16.97702 | 33132 ft | 404 kts | 210° |
| 2026-04-13 13:46 | 21.01245 | -16.99733 | 33131 ft | 403 kts | 210° |
| 2026-04-13 13:46 | 20.95967 | -17.01759 | 33127 ft | 403 kts | 210° |
| 2026-04-13 13:47 | 20.90603 | -17.03506 | 33103 ft | 416 kts | 200° |
| 2026-04-13 13:47 | 20.84752 | -17.04017 | 33113 ft | 423 kts | 195° |
| 2026-04-13 13:48 | 20.78882 | -17.04433 | 33119 ft | 422 kts | 195° |
| 2026-04-13 13:48 | 20.73010 | -17.04848 | 33116 ft | 422 kts | 195° |
| 2026-04-13 13:49 | 20.67158 | -17.05280 | 33109 ft | 421 kts | 195° |
| 2026-04-13 13:49 | 20.61357 | -17.05713 | 33104 ft | 420 kts | 195° |
| 2026-04-13 13:50 | 20.55493 | -17.06153 | 33097 ft | 420 kts | 195° |
| 2026-04-13 13:50 | 20.49704 | -17.06577 | 33083 ft | 419 kts | 195° |
| 2026-04-13 13:51 | 20.43879 | -17.07003 | 33078 ft | 419 kts | 195° |
| 2026-04-13 13:51 | 20.38058 | -17.07432 | 33073 ft | 419 kts | 195° |
| 2026-04-13 13:52 | 20.32235 | -17.07860 | 33067 ft | 419 kts | 195° |
| 2026-04-13 13:52 | 20.26407 | -17.08287 | 33040 ft | 419 kts | 195° |
| 2026-04-13 13:53 | 20.20620 | -17.08713 | 33047 ft | 419 kts | 195° |
| 2026-04-13 13:53 | 20.14799 | -17.09140 | 33046 ft | 419 kts | 195° |
| 2026-04-13 13:54 | 20.08975 | -17.09561 | 33046 ft | 419 kts | 195° |
| 2026-04-13 13:54 | 20.03142 | -17.09986 | 33056 ft | 419 kts | 195° |
| 2026-04-13 13:55 | 19.97348 | -17.10408 | 33048 ft | 419 kts | 195° |
| 2026-04-13 13:55 | 19.91516 | -17.10837 | 33028 ft | 420 kts | 195° |
| 2026-04-13 13:56 | 19.85679 | -17.11266 | 33018 ft | 421 kts | 195° |
| 2026-04-13 13:56 | 19.79820 | -17.11698 | 33028 ft | 422 kts | 195° |
| 2026-04-13 13:57 | 19.73954 | -17.12124 | 33033 ft | 422 kts | 195° |
| 2026-04-13 13:57 | 19.68084 | -17.12549 | 33032 ft | 423 kts | 195° |
| 2026-04-13 13:58 | 19.62239 | -17.12970 | 33017 ft | 423 kts | 195° |
| 2026-04-13 13:58 | 19.56354 | -17.13395 | 33015 ft | 424 kts | 195° |
| 2026-04-13 13:59 | 19.50439 | -17.13828 | 33015 ft | 425 kts | 195° |
| 2026-04-13 13:59 | 19.44531 | -17.14263 | 33019 ft | 426 kts | 195° |
| 2026-04-13 14:00 | 19.38647 | -17.14689 | 33021 ft | 426 kts | 195° |
| 2026-04-13 14:00 | 19.32728 | -17.15112 | 33024 ft | 426 kts | 195° |
| 2026-04-13 14:01 | 19.26811 | -17.15536 | 33003 ft | 426 kts | 194° |
| 2026-04-13 14:01 | 19.20930 | -17.15971 | 33009 ft | 426 kts | 194° |
| 2026-04-13 14:02 | 19.15005 | -17.16407 | 33015 ft | 426 kts | 194° |
| 2026-04-13 14:02 | 19.09085 | -17.16836 | 33019 ft | 427 kts | 194° |
| 2026-04-13 14:03 | 19.03156 | -17.17248 | 33026 ft | 427 kts | 194° |
| 2026-04-13 14:03 | 18.97230 | -17.17668 | 32997 ft | 426 kts | 194° |
| 2026-04-13 14:04 | 18.91322 | -17.18100 | 33031 ft | 425 kts | 194° |
| 2026-04-13 14:04 | 18.85431 | -17.18528 | 33102 ft | 423 kts | 194° |
| 2026-04-13 14:04 | 18.82491 | -17.18739 | 33354 ft | 422 kts | 194° |
| 2026-04-13 14:05 | 18.79607 | -17.18943 | 33609 ft | 420 kts | 194° |
| 2026-04-13 14:05 | 18.76696 | -17.19148 | 33866 ft | 418 kts | 194° |
| 2026-04-13 14:05 | 18.73789 | -17.19356 | 34006 ft | 419 kts | 194° |
| 2026-04-13 14:06 | 18.67972 | -17.19780 | 34021 ft | 418 kts | 195° |
| 2026-04-13 14:06 | 18.62171 | -17.20209 | 34020 ft | 418 kts | 194° |
| 2026-04-13 14:07 | 18.56353 | -17.20631 | 34013 ft | 419 kts | 194° |
| 2026-04-13 14:07 | 18.50533 | -17.21039 | 34014 ft | 419 kts | 194° |
| 2026-04-13 14:08 | 18.44715 | -17.21452 | 34013 ft | 419 kts | 194° |
| 2026-04-13 14:08 | 18.38890 | -17.21876 | 34015 ft | 419 kts | 194° |
| 2026-04-13 14:09 | 18.33063 | -17.22295 | 34018 ft | 420 kts | 194° |
| 2026-04-13 14:09 | 18.27234 | -17.22704 | 34009 ft | 419 kts | 194° |
| 2026-04-13 14:10 | 18.21445 | -17.23117 | 34017 ft | 419 kts | 194° |
| 2026-04-13 14:10 | 18.15625 | -17.23545 | 34009 ft | 419 kts | 194° |
| 2026-04-13 14:11 | 18.09808 | -17.23959 | 34015 ft | 419 kts | 194° |
| 2026-04-13 14:11 | 18.04019 | -17.24367 | 34014 ft | 419 kts | 194° |
| 2026-04-13 14:12 | 17.98210 | -17.24783 | 33987 ft | 418 kts | 193° |
| 2026-04-13 14:12 | 17.92390 | -17.25200 | 33993 ft | 419 kts | 193° |
| 2026-04-13 14:13 | 17.86562 | -17.25620 | 33988 ft | 420 kts | 193° |
| 2026-04-13 14:13 | 17.80723 | -17.26044 | 33996 ft | 420 kts | 193° |
| 2026-04-13 14:14 | 17.71996 | -17.26660 | 34000 ft | 421 kts | 193° |
| 2026-04-13 14:14 | 17.66147 | -17.27071 | 34004 ft | 421 kts | 193° |
| 2026-04-13 14:15 | 17.60294 | -17.27492 | 33985 ft | 421 kts | 193° |
| 2026-04-13 14:15 | 17.54444 | -17.27913 | 33989 ft | 421 kts | 193° |
| 2026-04-13 14:16 | 17.48627 | -17.28322 | 33993 ft | 422 kts | 193° |
| 2026-04-13 14:16 | 17.42769 | -17.28736 | 33996 ft | 422 kts | 193° |
| 2026-04-13 14:17 | 17.36908 | -17.29152 | 33995 ft | 422 kts | 193° |
| 2026-04-13 14:17 | 17.31053 | -17.29568 | 33993 ft | 422 kts | 193° |
| 2026-04-13 14:18 | 17.25190 | -17.29977 | 33993 ft | 422 kts | 193° |
| 2026-04-13 14:18 | 17.19328 | -17.30394 | 33992 ft | 422 kts | 193° |
| 2026-04-13 14:19 | 17.13470 | -17.30814 | 33993 ft | 422 kts | 193° |
| 2026-04-13 14:19 | 17.07613 | -17.31227 | 33993 ft | 422 kts | 193° |
| 2026-04-13 14:20 | 17.01749 | -17.31633 | 33991 ft | 422 kts | 193° |
| 2026-04-13 14:20 | 16.95933 | -17.32043 | 33970 ft | 422 kts | 192° |
| 2026-04-13 14:21 | 16.90074 | -17.32465 | 33982 ft | 421 kts | 192° |
| 2026-04-13 14:21 | 16.84220 | -17.32879 | 33986 ft | 421 kts | 192° |
| 2026-04-13 14:22 | 16.78368 | -17.33290 | 33982 ft | 421 kts | 192° |
| 2026-04-13 14:22 | 16.72459 | -17.33278 | 33982 ft | 432 kts | 182° |
| 2026-04-13 14:23 | 16.66512 | -17.32599 | 33979 ft | 432 kts | 182° |
| 2026-04-13 14:23 | 16.60526 | -17.31916 | 33968 ft | 432 kts | 182° |
| 2026-04-13 14:24 | 16.55554 | -17.31354 | 33956 ft | 432 kts | 182° |
| 2026-04-13 14:24 | 16.49572 | -17.30682 | 33960 ft | 432 kts | 182° |
| 2026-04-13 14:25 | 16.43587 | -17.30008 | 33964 ft | 432 kts | 182° |
| 2026-04-13 14:25 | 16.37604 | -17.29326 | 33964 ft | 432 kts | 182° |
| 2026-04-13 14:26 | 16.31617 | -17.28654 | 33947 ft | 432 kts | 181° |
| 2026-04-13 14:26 | 16.28626 | -17.28316 | 33693 ft | 431 kts | 181° |
| 2026-04-13 14:26 | 16.25649 | -17.27980 | 33436 ft | 430 kts | 181° |
| 2026-04-13 14:27 | 16.22668 | -17.27647 | 33181 ft | 431 kts | 181° |
| 2026-04-13 14:27 | 16.19684 | -17.27314 | 32928 ft | 432 kts | 181° |
| 2026-04-13 14:27 | 16.16692 | -17.26974 | 32678 ft | 432 kts | 181° |
| 2026-04-13 14:27 | 16.13708 | -17.26635 | 32430 ft | 431 kts | 181° |
| 2026-04-13 14:28 | 16.10730 | -17.26297 | 32182 ft | 430 kts | 181° |
| 2026-04-13 14:28 | 16.07755 | -17.25963 | 31947 ft | 429 kts | 182° |
| 2026-04-13 14:28 | 16.04782 | -17.25633 | 31694 ft | 429 kts | 182° |
| 2026-04-13 14:28 | 16.01822 | -17.25306 | 31455 ft | 428 kts | 182° |
| 2026-04-13 14:29 | 15.98902 | -17.24982 | 31220 ft | 427 kts | 182° |
| 2026-04-13 14:29 | 15.95952 | -17.24648 | 30966 ft | 425 kts | 181° |
| 2026-04-13 14:29 | 15.93015 | -17.24311 | 30545 ft | 424 kts | 181° |
| 2026-04-13 14:29 | 15.90087 | -17.23975 | 30079 ft | 422 kts | 182° |
| 2026-04-13 14:30 | 15.87178 | -17.23644 | 29562 ft | 420 kts | 182° |
| 2026-04-13 14:30 | 15.84283 | -17.23317 | 29035 ft | 417 kts | 182° |
| 2026-04-13 14:30 | 15.81406 | -17.22994 | 28520 ft | 415 kts | 181° |
| 2026-04-13 14:30 | 15.78544 | -17.22674 | 27994 ft | 412 kts | 181° |
| 2026-04-13 14:31 | 15.75709 | -17.22356 | 27499 ft | 409 kts | 181° |
| 2026-04-13 14:31 | 15.72889 | -17.22038 | 27008 ft | 406 kts | 181° |
| 2026-04-13 14:31 | 15.70093 | -17.21725 | 26526 ft | 403 kts | 181° |
| 2026-04-13 14:31 | 15.67312 | -17.21416 | 26051 ft | 400 kts | 181° |
| 2026-04-13 14:32 | 15.64546 | -17.21109 | 25570 ft | 397 kts | 181° |
| 2026-04-13 14:32 | 15.61805 | -17.20802 | 25112 ft | 395 kts | 180° |
| 2026-04-13 14:32 | 15.59107 | -17.20499 | 24666 ft | 393 kts | 180° |
| 2026-04-13 14:32 | 15.56386 | -17.20194 | 24220 ft | 391 kts | 180° |
| 2026-04-13 14:33 | 15.53685 | -17.19891 | 23785 ft | 389 kts | 180° |
| 2026-04-13 14:33 | 15.51005 | -17.19591 | 23320 ft | 387 kts | 180° |
| 2026-04-13 14:33 | 15.48334 | -17.19295 | 22799 ft | 385 kts | 180° |
| 2026-04-13 14:33 | 15.45675 | -17.18999 | 22288 ft | 383 kts | 179° |
| 2026-04-13 14:34 | 15.43036 | -17.18705 | 21783 ft | 381 kts | 179° |
| 2026-04-13 14:34 | 15.40409 | -17.18412 | 21288 ft | 379 kts | 179° |
| 2026-04-13 14:34 | 15.37786 | -17.18119 | 20801 ft | 377 kts | 178° |
| 2026-04-13 14:34 | 15.35182 | -17.17826 | 20323 ft | 376 kts | 178° |
| 2026-04-13 14:35 | 15.32617 | -17.17537 | 19856 ft | 374 kts | 178° |
| 2026-04-13 14:35 | 15.30032 | -17.17249 | 19391 ft | 373 kts | 177° |
| 2026-04-13 14:35 | 15.27458 | -17.16962 | 18935 ft | 371 kts | 176° |
| 2026-04-13 14:35 | 15.24890 | -17.16677 | 18486 ft | 370 kts | 176° |
| 2026-04-13 14:36 | 15.22338 | -17.16395 | 18017 ft | 369 kts | 176° |
| 2026-04-13 14:36 | 15.19786 | -17.16113 | 17503 ft | 367 kts | 176° |
| 2026-04-13 14:36 | 15.17249 | -17.15833 | 17004 ft | 366 kts | 176° |
| 2026-04-13 14:36 | 15.14724 | -17.15554 | 16510 ft | 364 kts | 175° |
| 2026-04-13 14:37 | 15.12206 | -17.15275 | 16021 ft | 363 kts | 175° |
| 2026-04-13 14:37 | 15.09732 | -17.14999 | 15543 ft | 361 kts | 175° |
| 2026-04-13 14:37 | 15.07239 | -17.14723 | 15074 ft | 360 kts | 175° |
| 2026-04-13 14:37 | 15.04754 | -17.14447 | 14607 ft | 358 kts | 176° |
| 2026-04-13 14:38 | 15.02282 | -17.14171 | 14157 ft | 357 kts | 175° |
| 2026-04-13 14:38 | 14.99818 | -17.13895 | 13701 ft | 355 kts | 175° |
| 2026-04-13 14:38 | 14.97369 | -17.13618 | 13185 ft | 353 kts | 174° |
| 2026-04-13 14:38 | 14.94952 | -17.13340 | 12937 ft | 346 kts | 174° |
| 2026-04-13 14:39 | 14.92569 | -17.13060 | 12932 ft | 344 kts | 174° |
| 2026-04-13 14:39 | 14.90181 | -17.12776 | 12936 ft | 346 kts | 174° |
| 2026-04-13 14:39 | 14.87783 | -17.12559 | 12933 ft | 345 kts | 178° |
| 2026-04-13 14:39 | 14.85380 | -17.12472 | 12775 ft | 346 kts | 179° |
| 2026-04-13 14:40 | 14.82974 | -17.12399 | 12269 ft | 345 kts | 179° |
| 2026-04-13 14:40 | 14.80708 | -17.12332 | 12288 ft | 344 kts | 179° |
| 2026-04-13 14:40 | 14.78326 | -17.12254 | 11332 ft | 342 kts | 180° |
| 2026-04-13 14:40 | 14.75951 | -17.12161 | 10853 ft | 341 kts | 180° |
| 2026-04-13 14:41 | 14.73582 | -17.12045 | 10389 ft | 340 kts | 179° |
| 2026-04-13 14:41 | 14.71223 | -17.11937 | 9931 ft | 339 kts | 180° |
| 2026-04-13 14:41 | 14.68875 | -17.11821 | 9442 ft | 337 kts | 179° |
| 2026-04-13 14:41 | 14.66536 | -17.11713 | 8937 ft | 335 kts | 179° |
| 2026-04-13 14:42 | 14.64188 | -17.11608 | 8313 ft | 337 kts | 179° |
| 2026-04-13 14:42 | 14.61911 | -17.11653 | 7825 ft | 318 kts | 184° |
| 2026-04-13 14:42 | 14.59760 | -17.11759 | 7352 ft | 302 kts | 184° |
| 2026-04-13 14:42 | 14.57697 | -17.11867 | 6884 ft | 292 kts | 184° |
| 2026-04-13 14:43 | 14.55668 | -17.11981 | 6429 ft | 294 kts | 184° |
| 2026-04-13 14:43 | 14.53622 | -17.12113 | 5941 ft | 295 kts | 186° |
| 2026-04-13 14:43 | 14.51664 | -17.12587 | 5458 ft | 293 kts | 202° |
| 2026-04-13 14:43 | 14.49778 | -17.13378 | 4982 ft | 293 kts | 204° |
| 2026-04-13 14:44 | 14.47900 | -17.14199 | 4493 ft | 292 kts | 204° |
| 2026-04-13 14:44 | 14.46034 | -17.15028 | 4012 ft | 292 kts | 204° |
| 2026-04-13 14:44 | 14.44169 | -17.15867 | 3522 ft | 292 kts | 204° |
| 2026-04-13 14:44 | 14.42312 | -17.16707 | 3091 ft | 289 kts | 202° |
| 2026-04-13 14:45 | 14.40404 | -17.17138 | 2974 ft | 277 kts | 182° |
| 2026-04-13 14:45 | 14.38469 | -17.17207 | 2998 ft | 279 kts | 180° |
| 2026-04-13 14:45 | 14.36527 | -17.17206 | 2982 ft | 278 kts | 173° |
| 2026-04-13 14:45 | 14.34732 | -17.16603 | 2980 ft | 265 kts | 143° |
| 2026-04-13 14:46 | 14.33528 | -17.15292 | 2986 ft | 247 kts | 114° |
| 2026-04-13 14:46 | 14.33158 | -17.13609 | 2985 ft | 240 kts | 82° |
| 2026-04-13 14:46 | 14.33660 | -17.12006 | 2989 ft | 236 kts | 58° |
| 2026-04-13 14:46 | 14.34531 | -17.10578 | 3003 ft | 232 kts | 55° |
| 2026-04-13 14:47 | 14.35433 | -17.09214 | 2994 ft | 228 kts | 54° |
| 2026-04-13 14:47 | 14.36429 | -17.08026 | 2983 ft | 214 kts | 38° |
| 2026-04-13 14:47 | 14.37711 | -17.07276 | 2998 ft | 213 kts | 19° |
| 2026-04-13 14:47 | 14.39163 | -17.07018 | 2996 ft | 212 kts | 1° |
| 2026-04-13 14:48 | 14.40618 | -17.07033 | 2997 ft | 207 kts | 1° |
| 2026-04-13 14:48 | 14.42055 | -17.07048 | 2999 ft | 207 kts | 0° |
| 2026-04-13 14:48 | 14.43488 | -17.07061 | 2991 ft | 205 kts | 0° |
| 2026-04-13 14:48 | 14.44918 | -17.07075 | 3008 ft | 205 kts | 0° |
| 2026-04-13 14:49 | 14.46354 | -17.07088 | 3004 ft | 206 kts | 1° |
| 2026-04-13 14:49 | 14.47762 | -17.07101 | 3021 ft | 206 kts | 0° |
| 2026-04-13 14:49 | 14.49190 | -17.07115 | 3020 ft | 204 kts | 0° |
| 2026-04-13 14:49 | 14.50559 | -17.07128 | 2988 ft | 191 kts | 0° |
| 2026-04-13 14:50 | 14.51869 | -17.07140 | 2840 ft | 187 kts | 1° |
| 2026-04-13 14:50 | 14.53150 | -17.07152 | 2622 ft | 180 kts | 1° |
| 2026-04-13 14:50 | 14.54388 | -17.07164 | 2405 ft | 176 kts | 2° |
| 2026-04-13 14:50 | 14.55603 | -17.07175 | 2183 ft | 173 kts | 3° |
| 2026-04-13 14:51 | 14.56798 | -17.07186 | 1960 ft | 170 kts | 4° |
| 2026-04-13 14:51 | 14.57926 | -17.07198 | 1759 ft | 154 kts | 3° |
| 2026-04-13 14:51 | 14.58964 | -17.07208 | 1563 ft | 144 kts | 4° |
| 2026-04-13 14:51 | 14.59934 | -17.07217 | 1380 ft | 139 kts | 5° |
| 2026-04-13 14:52 | 14.60908 | -17.07226 | 1193 ft | 140 kts | 4° |
| 2026-04-13 14:52 | 14.61877 | -17.07235 | 969 ft | 138 kts | 1° |
| 2026-04-13 14:52 | 14.62841 | -17.07239 | 781 ft | 139 kts | 359° |
| 2026-04-13 14:52 | 14.63809 | -17.07249 | 678 ft | 140 kts | 1° |
| 2026-04-13 14:53 | 14.64791 | -17.07261 | 451 ft | 139 kts | 0° |
| 2026-04-13 14:53 | 14.65751 | -17.07271 | 274 ft | 137 kts | 358° |
| 2026-04-13 14:53 | 14.66625 | -17.07278 | 268 ft | 108 kts | 359° |
| 2026-04-13 14:53 | 14.67183 | -17.07283 | 267 ft | 57 kts | 359° |
| 2026-04-13 14:54 | 14.67498 | -17.07286 | 262 ft | 37 kts | 359° |
| 2026-04-13 14:54 | 14.67707 | -17.07242 | 263 ft | 29 kts | 25° |
| 2026-04-13 14:54 | 14.67814 | -17.07183 | 262 ft | 13 kts | 29° |
| 2026-04-13 14:54 | 14.67857 | -17.07119 | 263 ft | 10 kts | 109° |
| 2026-04-13 14:55 | 14.67805 | -17.07096 | 265 ft | 10 kts | 180° |
| 2026-04-13 14:55 | 14.67705 | -17.07097 | 266 ft | 18 kts | 180° |
| 2026-04-13 14:55 | 14.67562 | -17.07095 | 266 ft | 17 kts | 179° |
| 2026-04-13 14:55 | 14.67446 | -17.07094 | 265 ft | 16 kts | 179° |
| 2026-04-13 14:56 | 14.67342 | -17.07093 | 266 ft | 14 kts | 179° |
| 2026-04-13 14:56 | 14.67254 | -17.07092 | 267 ft | 12 kts | 179° |
| 2026-04-13 14:56 | 14.67174 | -17.07092 | 267 ft | 11 kts | 179° |
| 2026-04-13 14:56 | 14.67100 | -17.07083 | 267 ft | 11 kts | 156° |
| 2026-04-13 14:57 | 14.67078 | -17.07025 | 271 ft | 7 kts | 85° |
| 2026-04-13 14:57 | 14.67101 | -17.06984 | 271 ft | 8 kts | 36° |
| 2026-04-13 14:57 | 14.67160 | -17.06976 | 271 ft | 10 kts | 359° |
| 2026-04-13 14:58 | 14.67224 | -17.06929 | 271 ft | 5 kts | 118° |
| 2026-04-13 14:58 | 14.67201 | -17.06899 | 274 ft | 6 kts | 125° |
| 2026-04-13 14:58 | 14.67180 | -17.06864 | 271 ft | 6 kts | 122° |
| 2026-04-13 14:58 | 14.67176 | -17.06858 | 271 ft | 0 kts | 122° |